createdAt,value
2018-03-19T00:01:50.661Z,15.32
2018-03-19T00:04:18.732Z,15.36
2018-03-19T00:06:46.816Z,15.34
2018-03-19T00:09:14.865Z,15.33
2018-03-19T00:11:42.464Z,15.33
2018-03-19T00:14:10.256Z,15.27
2018-03-19T00:16:38.335Z,15.26
2018-03-19T00:19:06.187Z,15.21
2018-03-19T00:21:33.776Z,15.06
2018-03-19T00:24:01.359Z,15.12
2018-03-19T00:26:28.894Z,15.03
2018-03-19T00:28:56.799Z,15.05
2018-03-19T00:31:24.337Z,15.02
2018-03-19T00:33:51.916Z,14.97
2018-03-19T00:36:19.448Z,14.95
2018-03-19T00:38:47.036Z,14.92
2018-03-19T00:41:14.624Z,14.94
2018-03-19T00:43:42.164Z,14.88
2018-03-19T00:46:10.274Z,14.92
2018-03-19T00:48:37.862Z,14.91
2018-03-19T00:51:05.398Z,14.86
2018-03-19T00:53:33.375Z,14.87
2018-03-19T00:56:01.720Z,14.87
2018-03-19T00:58:29.259Z,14.86
2018-03-19T01:00:57.244Z,14.87
2018-03-19T01:03:24.836Z,14.80
2018-03-19T01:05:52.420Z,14.82
2018-03-19T01:08:20.018Z,14.75
2018-03-19T01:10:47.602Z,14.72
2018-03-19T01:13:15.676Z,14.70
2018-03-19T01:15:43.216Z,14.58
2018-03-19T01:18:11.179Z,14.62
2018-03-19T01:20:38.785Z,14.68
2018-03-19T01:23:06.324Z,14.61
2018-03-19T01:25:33.863Z,14.63
2018-03-19T01:28:01.444Z,14.55
2018-03-19T01:30:29.003Z,14.51
2018-03-19T01:32:57.112Z,14.55
2018-03-19T01:35:24.660Z,14.53
2018-03-19T01:37:52.258Z,14.42
2018-03-19T01:40:19.808Z,14.41
2018-03-19T01:42:47.396Z,14.37
2018-03-19T01:45:14.980Z,14.43
2018-03-19T01:47:42.968Z,14.45
2018-03-19T01:50:10.555Z,14.38
2018-03-19T01:52:49.065Z,14.44
2018-03-19T01:55:16.604Z,14.43
2018-03-19T01:57:44.184Z,14.44
2018-03-19T02:00:11.736Z,14.44
2018-03-19T02:02:39.564Z,14.46
2018-03-19T02:05:07.152Z,14.44
2018-03-19T02:07:34.691Z,14.37
2018-03-19T02:10:02.294Z,14.37
2018-03-19T02:12:29.832Z,14.32
2018-03-19T02:14:57.890Z,14.28
2018-03-19T02:17:25.431Z,14.29
2018-03-19T02:19:52.985Z,14.26
2018-03-19T02:22:20.997Z,14.24
2018-03-19T02:24:48.550Z,14.25
2018-03-19T02:27:16.136Z,14.25
2018-03-19T02:29:43.689Z,14.23
2018-03-19T02:32:11.290Z,14.14
2018-03-19T02:34:38.888Z,14.10
2018-03-19T02:37:07.454Z,14.16
2018-03-19T02:39:35.448Z,14.20
2018-03-19T02:42:03.024Z,14.16
2018-03-19T02:44:30.559Z,14.14
2018-03-19T02:46:58.152Z,14.18
2018-03-19T02:49:25.762Z,14.23
2018-03-19T02:51:53.374Z,14.21
2018-03-19T02:54:20.931Z,14.14
2018-03-19T02:56:48.491Z,14.13
2018-03-19T02:59:16.370Z,14.13
2018-03-19T03:01:43.956Z,14.10
2018-03-19T03:04:11.512Z,14.09
2018-03-19T03:06:39.093Z,14.17
2018-03-19T03:09:06.646Z,14.15
2018-03-19T03:11:34.223Z,14.12
2018-03-19T03:14:01.772Z,14.05
2018-03-19T03:16:29.351Z,14.11
2018-03-19T03:18:56.900Z,14.09
2018-03-19T03:21:24.485Z,14.02
2018-03-19T03:23:52.023Z,13.99
2018-03-19T03:26:19.616Z,13.94
2018-03-19T03:28:47.165Z,14.00
2018-03-19T03:31:14.755Z,13.95
2018-03-19T03:33:42.291Z,13.99
2018-03-19T03:36:09.834Z,14.05
2018-03-19T03:38:37.388Z,14.08
2018-03-19T03:41:04.967Z,14.08
2018-03-19T03:43:32.546Z,14.04
2018-03-19T03:46:00.138Z,13.96
2018-03-19T03:48:27.864Z,13.99
2018-03-19T03:50:55.928Z,14.02
2018-03-19T03:53:23.465Z,14.04
2018-03-19T03:55:51.047Z,14.04
2018-03-19T03:58:18.596Z,13.98
2018-03-19T04:00:46.172Z,13.97
2018-03-19T04:03:13.763Z,14.01
2018-03-19T04:05:41.598Z,14.03
2018-03-19T04:08:09.198Z,14.02
2018-03-19T04:10:36.763Z,14.02
2018-03-19T04:13:04.569Z,13.98
2018-03-19T04:15:32.184Z,13.97
2018-03-19T04:17:59.764Z,13.97
2018-03-19T04:20:27.349Z,13.98
2018-03-19T04:22:54.945Z,13.93
2018-03-19T04:25:22.503Z,13.92
2018-03-19T04:27:50.052Z,13.94
2018-03-19T04:30:17.636Z,13.87
2018-03-19T04:32:45.188Z,13.81
2018-03-19T04:35:12.776Z,13.86
2018-03-19T04:37:40.931Z,13.89
2018-03-19T04:40:08.524Z,13.84
2018-03-19T04:42:36.081Z,13.83
2018-03-19T04:45:03.660Z,13.72
2018-03-19T04:47:31.204Z,13.77
2018-03-19T04:49:58.793Z,13.80
2018-03-19T04:52:26.342Z,13.77
2018-03-19T04:54:54.537Z,13.68
2018-03-19T04:57:22.077Z,13.72
2018-03-19T04:59:49.652Z,13.74
2018-03-19T05:02:17.196Z,13.76
2018-03-19T05:04:44.787Z,13.73
2018-03-19T05:07:12.554Z,13.74
2018-03-19T05:09:40.141Z,13.76
2018-03-19T05:12:07.723Z,13.78
2018-03-19T05:14:36.077Z,13.80
2018-03-19T05:17:03.668Z,13.81
2018-03-19T05:19:31.207Z,13.83
2018-03-19T05:21:58.791Z,13.81
2018-03-19T05:24:26.327Z,13.74
2018-03-19T05:26:53.940Z,13.67
2018-03-19T05:29:21.488Z,13.66
2018-03-19T05:31:49.064Z,13.69
2018-03-19T05:34:16.652Z,13.80
2018-03-19T05:36:45.052Z,13.79
2018-03-19T05:39:12.644Z,13.77
2018-03-19T05:41:40.233Z,13.77
2018-03-19T05:44:07.788Z,13.70
2018-03-19T05:46:35.390Z,13.66
2018-03-19T05:49:03.870Z,13.66
2018-03-19T05:51:35.421Z,13.69
2018-03-19T05:54:03.720Z,13.66
2018-03-19T05:56:31.287Z,13.62
2018-03-19T05:58:58.894Z,13.40
2018-03-19T06:01:27.409Z,13.37
2018-03-19T06:03:56.037Z,13.42
2018-03-19T06:06:23.640Z,13.47
2018-03-19T06:08:51.985Z,13.51
2018-03-19T06:11:19.543Z,13.52
2018-03-19T06:13:47.491Z,13.50
2018-03-19T06:16:16.111Z,13.54
2018-03-19T06:18:44.312Z,13.57
2018-03-19T06:21:12.638Z,13.58
2018-03-19T06:23:40.191Z,13.73
2018-03-19T06:26:08.261Z,13.72
2018-03-19T06:28:35.892Z,13.80
2018-03-19T06:31:03.899Z,13.82
2018-03-19T06:33:32.058Z,13.77
2018-03-19T06:35:59.646Z,13.70
2018-03-19T06:38:27.597Z,13.65
2018-03-19T06:40:55.518Z,13.62
2018-03-19T06:43:23.142Z,13.73
2018-03-19T06:45:51.340Z,13.73
2018-03-19T06:48:19.066Z,13.70
2018-03-19T06:50:46.983Z,13.66
2018-03-19T06:53:15.362Z,13.70
2018-03-19T06:55:43.037Z,13.82
2018-03-19T06:58:10.639Z,14.00
2018-03-19T07:00:38.295Z,14.17
2018-03-19T07:03:06.879Z,14.13
2018-03-19T07:05:34.706Z,14.07
2018-03-19T07:08:02.469Z,14.16
2018-03-19T07:10:30.080Z,14.09
2018-03-19T07:12:58.315Z,14.06
2018-03-19T07:15:25.870Z,14.02
2018-03-19T07:17:53.482Z,13.91
2018-03-19T07:20:21.063Z,13.88
2018-03-19T07:22:48.686Z,13.83
2018-03-19T07:25:16.540Z,13.95
2018-03-19T07:27:44.946Z,13.94
2018-03-19T07:30:12.516Z,13.96
2018-03-19T07:32:40.126Z,13.98
2018-03-19T07:35:07.906Z,13.96
2018-03-19T07:37:35.958Z,13.87
2018-03-19T07:40:03.754Z,13.90
2018-03-19T07:42:31.465Z,13.98
2018-03-19T07:44:59.269Z,13.99
2018-03-19T07:47:28.887Z,14.09
2018-03-19T07:49:58.586Z,14.12
2018-03-19T07:52:26.550Z,14.04
2018-03-19T07:54:54.552Z,13.96
2018-03-19T07:57:23.684Z,13.97
2018-03-19T07:59:51.992Z,13.95
2018-03-19T08:02:19.750Z,13.88
2018-03-19T08:04:48.124Z,13.78
2018-03-19T08:07:15.755Z,13.67
2018-03-19T08:09:43.402Z,13.86
2018-03-19T08:12:11.254Z,13.83
2018-03-19T08:14:38.871Z,13.79
2018-03-19T08:17:07.249Z,13.77
2018-03-19T08:19:34.845Z,13.73
2018-03-19T08:22:03.396Z,13.77
2018-03-19T08:24:31.222Z,13.76
2018-03-19T08:27:07.555Z,13.76
2018-03-19T08:29:35.285Z,13.73
2018-03-19T08:32:02.915Z,13.68
2018-03-19T08:34:30.626Z,13.65
2018-03-19T08:36:58.377Z,13.67
2018-03-19T08:39:26.483Z,13.80
2018-03-19T08:41:54.583Z,13.93
2018-03-19T08:44:22.463Z,14.05
2018-03-19T08:46:50.083Z,13.97
2018-03-19T08:49:17.663Z,14.04
2018-03-19T08:51:45.480Z,14.13
2018-03-19T08:54:13.221Z,14.07
2018-03-19T08:56:40.829Z,13.95
2018-03-19T08:59:08.419Z,13.81
2018-03-19T09:01:36.028Z,13.74
2018-03-19T09:04:04.643Z,13.66
2018-03-19T09:06:32.429Z,13.70
2018-03-19T09:09:00.035Z,13.66
2018-03-19T09:11:28.895Z,13.65
2018-03-19T09:13:56.501Z,13.64
2018-03-19T09:16:24.685Z,13.56
2018-03-19T09:18:52.468Z,13.55
2018-03-19T09:21:20.070Z,13.67
2018-03-19T09:23:47.898Z,13.57
2018-03-19T09:26:16.012Z,13.44
2018-03-19T09:28:44.084Z,13.31
2018-03-19T09:33:35.636Z,13.29
2018-03-19T09:36:04.017Z,13.27
2018-03-19T09:38:31.640Z,13.31
2018-03-19T09:40:59.521Z,13.38
2018-03-19T09:43:28.189Z,13.38
2018-03-19T09:45:55.793Z,13.31
2018-03-19T09:48:24.234Z,13.45
2018-03-19T09:50:52.006Z,13.47
2018-03-19T09:53:19.578Z,13.32
2018-03-19T09:55:47.394Z,13.28
2018-03-19T09:58:15.003Z,13.20
2018-03-19T10:00:42.576Z,13.17
2018-03-19T10:03:10.828Z,13.13
2018-03-19T10:05:38.432Z,13.11
2018-03-19T10:08:06.037Z,13.10
2018-03-19T10:10:33.887Z,13.13
2018-03-19T10:13:01.446Z,13.04
2018-03-19T10:15:29.128Z,12.99
2018-03-19T10:17:56.714Z,13.05
2018-03-19T10:20:24.846Z,13.08
2018-03-19T10:22:52.443Z,13.09
2018-03-19T10:25:20.051Z,13.07
2018-03-19T10:27:47.722Z,13.13
2018-03-19T10:30:15.297Z,13.11
2018-03-19T10:32:43.459Z,13.24
2018-03-19T10:35:11.208Z,13.36
2018-03-19T10:37:38.974Z,13.32
2018-03-19T10:40:06.599Z,13.28
2018-03-19T10:42:34.713Z,13.26
2018-03-19T10:45:03.158Z,13.24
2018-03-19T10:47:31.221Z,13.24
2018-03-19T10:49:59.028Z,13.22
2018-03-19T10:52:26.599Z,13.18
2018-03-19T10:54:54.206Z,13.19
2018-03-19T10:57:21.783Z,13.18
2018-03-19T10:59:49.399Z,13.20
2018-03-19T11:05:24.585Z,13.12
2018-03-19T11:07:58.133Z,13.01
2018-03-19T11:10:25.871Z,13.16
2018-03-19T11:12:53.858Z,13.20
2018-03-19T11:15:21.604Z,13.23
2018-03-19T11:17:49.895Z,13.18
2018-03-19T11:20:17.502Z,12.91
2018-03-19T11:22:45.135Z,12.97
2018-03-19T11:25:12.875Z,12.94
2018-03-19T11:27:40.482Z,12.92
2018-03-19T11:30:08.126Z,12.91
2018-03-19T11:32:35.758Z,12.99
2018-03-19T11:35:03.705Z,13.02
2018-03-19T11:37:31.335Z,12.99
2018-03-19T11:39:58.960Z,13.02
2018-03-19T11:42:26.535Z,13.08
2018-03-19T11:44:55.392Z,13.10
2018-03-19T11:47:23.459Z,13.07
2018-03-19T11:49:51.046Z,13.18
2018-03-19T11:52:18.988Z,13.13
2018-03-19T11:54:46.676Z,13.02
2018-03-19T11:57:14.282Z,12.91
2018-03-19T11:59:41.932Z,13.01
2018-03-19T12:02:10.458Z,12.96
2018-03-19T12:04:39.054Z,12.91
2018-03-19T12:07:06.738Z,12.90
2018-03-19T12:09:34.302Z,12.85
2018-03-19T12:12:01.905Z,12.90
2018-03-19T12:14:29.468Z,12.97
2018-03-19T12:16:57.070Z,12.96
2018-03-19T12:19:24.704Z,12.93
2018-03-19T12:21:52.411Z,12.86
2018-03-19T12:24:19.982Z,12.91
2018-03-19T12:26:47.660Z,12.71
2018-03-19T12:29:15.264Z,12.63
2018-03-19T12:31:42.841Z,12.70
2018-03-19T12:34:10.445Z,12.69
2018-03-19T12:36:38.004Z,12.67
2018-03-19T12:39:05.790Z,12.69
2018-03-19T12:41:33.337Z,12.60
2018-03-19T12:44:02.232Z,12.62
2018-03-19T12:46:29.792Z,12.74
2018-03-19T12:48:57.597Z,12.67
2018-03-19T12:51:31.245Z,12.67
2018-03-19T12:53:58.824Z,12.66
2018-03-19T12:56:26.409Z,12.66
2018-03-19T12:58:54.016Z,12.67
2018-03-19T13:01:22.318Z,12.78
2018-03-19T13:03:49.856Z,12.82
2018-03-19T13:06:17.461Z,12.82
2018-03-19T13:08:45.015Z,12.94
2018-03-19T13:11:12.656Z,12.92
2018-03-19T13:13:40.227Z,12.95
2018-03-19T13:16:07.800Z,12.97
2018-03-19T13:18:35.396Z,12.88
2018-03-19T13:21:03.822Z,13.01
2018-03-19T13:23:31.489Z,13.06
2018-03-19T13:25:59.783Z,12.99
2018-03-19T13:28:27.401Z,12.94
2018-03-19T13:30:54.977Z,12.91
2018-03-19T13:33:22.532Z,13.04
2018-03-19T13:35:50.136Z,13.03
2018-03-19T13:38:17.745Z,13.02
2018-03-19T13:40:45.935Z,13.00
2018-03-19T13:43:13.503Z,13.12
2018-03-19T13:45:41.113Z,13.08
2018-03-19T13:48:09.247Z,13.03
2018-03-19T13:50:37.440Z,13.01
2018-03-19T13:53:05.009Z,12.97
2018-03-19T13:55:32.646Z,12.91
2018-03-19T13:58:00.682Z,12.85
2018-03-19T14:00:28.296Z,12.84
2018-03-19T14:02:56.669Z,12.81
2018-03-19T14:05:24.893Z,12.83
2018-03-19T14:07:52.842Z,12.97
2018-03-19T14:10:20.399Z,12.97
2018-03-19T14:12:48.008Z,12.89
2018-03-19T14:15:15.565Z,12.86
2018-03-19T14:17:43.150Z,12.88
2018-03-19T14:20:11.165Z,12.84
2018-03-19T14:22:39.358Z,12.83
2018-03-19T14:25:07.953Z,12.81
2018-03-19T14:27:36.532Z,12.80
2018-03-19T14:30:04.105Z,12.74
2018-03-19T14:32:31.850Z,12.75
2018-03-19T14:34:59.914Z,12.74
2018-03-19T14:37:27.521Z,12.68
2018-03-19T14:39:55.139Z,12.66
2018-03-19T14:42:23.252Z,12.66
2018-03-19T14:44:50.877Z,12.62
2018-03-19T14:47:18.448Z,12.65
2018-03-19T14:49:46.129Z,12.63
2018-03-19T14:52:14.460Z,12.60
2018-03-19T14:54:42.321Z,12.61
2018-03-19T14:57:10.145Z,12.59
2018-03-19T14:59:39.825Z,12.57
2018-03-19T15:02:07.386Z,12.51
2018-03-19T15:04:35.850Z,12.54
2018-03-19T15:07:03.468Z,12.55
2018-03-19T15:09:31.086Z,12.55
2018-03-19T15:11:58.693Z,12.55
2018-03-19T15:14:26.296Z,12.51
2018-03-19T15:16:53.851Z,12.51
2018-03-19T15:19:22.301Z,12.51
2018-03-19T15:21:50.274Z,12.54
2018-03-19T15:24:17.841Z,12.46
2018-03-19T15:26:45.419Z,12.44
2018-03-19T15:29:13.015Z,12.46
2018-03-19T15:31:41.422Z,12.44
2018-03-19T15:34:09.038Z,12.44
2018-03-19T15:36:37.022Z,12.43
2018-03-19T15:39:04.655Z,12.44
2018-03-19T15:41:32.493Z,12.43
2018-03-19T15:44:00.131Z,12.43
2018-03-19T15:46:27.728Z,12.41
2018-03-19T15:48:55.875Z,12.40
2018-03-19T15:51:23.542Z,12.39
2018-03-19T15:53:51.096Z,12.41
2018-03-19T15:56:20.109Z,12.36
2018-03-19T15:58:48.025Z,12.33
2018-03-19T16:01:15.951Z,12.31
2018-03-19T16:03:44.370Z,12.27
2018-03-19T16:06:16.365Z,12.21
2018-03-19T16:08:45.385Z,12.13
2018-03-19T16:11:15.024Z,12.10
2018-03-19T16:13:42.575Z,12.11
2018-03-19T16:16:11.444Z,12.09
2018-03-19T16:18:38.997Z,12.06
2018-03-19T16:21:09.061Z,12.03
2018-03-19T16:23:36.624Z,12.05
2018-03-19T16:26:05.023Z,12.02
2018-03-19T16:28:32.625Z,12.00
2018-03-19T16:31:00.175Z,12.00
2018-03-19T16:33:28.684Z,11.98
2018-03-19T16:35:58.147Z,12.02
2018-03-19T16:38:26.093Z,12.00
2018-03-19T16:40:54.150Z,11.99
2018-03-19T16:43:22.890Z,12.00
2018-03-19T16:45:50.741Z,11.98
2018-03-19T16:48:19.092Z,12.00
2018-03-19T16:50:47.063Z,11.99
2018-03-19T16:53:14.685Z,12.01
2018-03-19T16:55:43.096Z,11.99
2018-03-19T16:58:11.712Z,12.00
2018-03-19T17:00:39.652Z,11.98
2018-03-19T17:03:07.592Z,11.97
2018-03-19T17:05:35.160Z,11.98
2018-03-19T17:08:02.782Z,12.00
2018-03-19T17:10:31.156Z,11.98
2018-03-19T17:12:58.788Z,11.95
2018-03-19T17:15:27.200Z,11.91
2018-03-19T17:17:54.814Z,11.86
2018-03-19T17:20:22.891Z,11.77
2018-03-19T17:22:50.881Z,11.76
2018-03-19T17:25:19.831Z,11.79
2018-03-19T17:27:49.303Z,11.80
2018-03-19T17:30:18.694Z,11.79
2018-03-19T17:32:46.757Z,11.77
2018-03-19T17:35:14.761Z,11.79
2018-03-19T17:37:43.330Z,11.79
2018-03-19T17:40:12.028Z,11.80
2018-03-19T17:42:40.235Z,11.78
2018-03-19T17:45:09.095Z,11.77
2018-03-19T17:47:37.483Z,11.79
2018-03-19T17:50:05.847Z,11.81
2018-03-19T17:52:35.239Z,11.83
2018-03-19T17:55:03.619Z,11.85
2018-03-19T17:57:33.585Z,11.81
2018-03-19T18:00:02.241Z,11.72
2018-03-19T18:02:30.522Z,11.71
2018-03-19T18:04:59.130Z,11.72
2018-03-19T18:07:28.260Z,11.70
2018-03-19T18:09:56.511Z,11.71
2018-03-19T18:12:25.714Z,11.71
2018-03-19T18:14:53.987Z,11.73
2018-03-19T18:17:22.630Z,11.71
2018-03-19T18:19:51.621Z,11.75
2018-03-19T18:22:19.939Z,11.74
2018-03-19T18:24:51.266Z,11.76
2018-03-19T18:27:21.245Z,11.74
2018-03-19T18:29:50.666Z,11.71
2018-03-19T18:32:20.497Z,11.64
2018-03-19T18:34:50.656Z,11.64
2018-03-19T18:37:19.783Z,11.67
2018-03-19T18:39:48.832Z,11.69
2018-03-19T18:42:17.455Z,11.71
2018-03-19T18:44:45.660Z,11.71
2018-03-19T18:47:14.847Z,11.69
2018-03-19T18:49:43.110Z,11.69
2018-03-19T18:52:11.598Z,11.66
2018-03-19T18:54:40.584Z,11.64
2018-03-19T18:57:08.903Z,11.66
2018-03-19T18:59:37.345Z,11.64
2018-03-19T19:02:06.348Z,11.64
2018-03-19T19:04:35.241Z,11.64
2018-03-19T19:07:03.314Z,11.66
2018-03-19T19:09:32.050Z,11.67
2018-03-19T19:12:01.345Z,11.69
2018-03-19T19:14:30.073Z,11.67
2018-03-19T19:17:01.080Z,11.68
2018-03-19T19:19:29.319Z,11.69
2018-03-19T19:21:59.064Z,11.69
2018-03-19T19:24:30.296Z,11.70
2018-03-19T19:26:58.716Z,11.70
2018-03-19T19:29:27.706Z,11.72
2018-03-19T19:31:56.086Z,11.73
2018-03-19T19:34:24.777Z,11.75
2018-03-19T19:36:53.537Z,11.71
2018-03-19T19:39:22.508Z,11.66
2018-03-19T19:41:52.348Z,11.68
2018-03-19T19:44:21.055Z,11.68
2018-03-19T19:46:50.898Z,11.69
2018-03-19T19:49:20.262Z,11.65
2018-03-19T19:51:51.093Z,11.62
2018-03-19T19:54:20.711Z,11.66
2018-03-19T19:56:49.673Z,11.65
2018-03-19T19:59:18.489Z,11.63
2018-03-19T20:01:46.981Z,11.68
2018-03-19T20:04:16.057Z,11.69
2018-03-19T20:06:47.510Z,11.72
2018-03-19T20:09:16.536Z,11.48
2018-03-19T20:11:46.072Z,11.43
2018-03-19T20:14:15.365Z,11.44
2018-03-19T20:16:44.128Z,11.45
2018-03-19T20:19:12.792Z,11.53
2018-03-19T20:21:43.309Z,11.56
2018-03-19T20:24:12.436Z,11.55
2018-03-19T20:26:40.609Z,11.52
2018-03-19T20:29:09.055Z,11.44
2018-03-19T20:31:37.241Z,11.49
2018-03-19T20:34:06.117Z,11.50
2018-03-19T20:36:34.365Z,11.54
2018-03-19T20:39:04.090Z,11.53
2018-03-19T20:41:31.697Z,11.46
2018-03-19T20:43:59.576Z,11.47
2018-03-19T20:46:27.187Z,11.45
2018-03-19T20:48:55.346Z,11.40
2018-03-19T20:51:23.707Z,11.41
2018-03-19T20:53:51.956Z,11.44
2018-03-19T20:56:19.953Z,11.43
2018-03-19T20:58:47.516Z,11.20
2018-03-19T21:01:16.178Z,11.27
2018-03-19T21:03:43.792Z,11.33
2018-03-19T21:06:11.367Z,11.33
2018-03-19T21:08:39.203Z,11.20
2018-03-19T21:11:06.924Z,11.26
2018-03-19T21:13:34.800Z,11.32
2018-03-19T21:16:03.484Z,11.36
2018-03-19T21:18:31.075Z,11.27
2018-03-19T21:20:58.652Z,11.24
2018-03-19T21:23:27.195Z,11.27
2018-03-19T21:25:55.463Z,11.34
2018-03-19T21:28:23.428Z,11.39
2018-03-19T21:30:51.107Z,11.48
2018-03-19T21:33:21.323Z,11.43
2018-03-19T21:35:49.394Z,11.47
2018-03-19T21:38:17.753Z,11.26
2018-03-19T21:40:46.226Z,10.79
2018-03-19T21:43:14.638Z,10.65
2018-03-19T21:45:42.528Z,10.55
2018-03-19T21:48:10.131Z,10.59
2018-03-19T21:50:37.715Z,10.43
2018-03-19T21:53:05.532Z,10.21
2018-03-19T21:55:33.148Z,10.40
2018-03-19T21:58:00.705Z,10.42
2018-03-19T22:00:28.296Z,10.30
2018-03-19T22:02:55.882Z,10.35
2018-03-19T22:05:23.960Z,10.33
2018-03-19T22:07:51.568Z,10.25
2018-03-19T22:10:19.127Z,10.15
2018-03-19T22:12:46.675Z,10.21
2018-03-19T22:15:15.256Z,10.33
2018-03-19T22:17:42.964Z,10.05
2018-03-19T22:20:11.177Z,9.87
2018-03-19T22:22:40.158Z,9.80
2018-03-19T22:25:08.209Z,9.94
2018-03-19T22:27:36.638Z,10.01
2018-03-19T22:30:05.084Z,9.84
2018-03-19T22:32:32.880Z,9.09
2018-03-19T22:35:00.457Z,9.20
2018-03-19T22:37:28.089Z,8.96
2018-03-19T22:39:55.647Z,8.61
2018-03-19T22:42:23.692Z,8.19
2018-03-19T22:44:51.235Z,8.02
2018-03-19T22:47:19.345Z,8.10
2018-03-19T22:49:46.896Z,7.80
2018-03-19T22:52:15.505Z,7.72
2018-03-19T22:54:43.061Z,8.08
2018-03-19T22:57:10.653Z,8.47
2018-03-19T22:59:38.222Z,8.80
2018-03-19T23:02:05.826Z,9.00
2018-03-19T23:04:45.793Z,9.08
2018-03-19T23:07:13.375Z,9.15
2018-03-19T23:09:40.967Z,9.38
2018-03-19T23:12:09.404Z,9.44
2018-03-19T23:14:36.992Z,9.45
2018-03-19T23:17:04.595Z,9.27
2018-03-19T23:19:32.187Z,9.36
2018-03-19T23:21:59.748Z,9.03
2018-03-19T23:24:27.352Z,8.92
2018-03-19T23:26:55.061Z,8.88
2018-03-19T23:29:22.807Z,8.81
2018-03-19T23:31:50.400Z,8.87
2018-03-19T23:34:18.341Z,8.80
2018-03-19T23:36:45.943Z,8.63
2018-03-19T23:39:13.489Z,8.35
2018-03-19T23:41:41.049Z,8.20
2018-03-19T23:44:08.673Z,8.32
2018-03-19T23:46:36.219Z,8.43
2018-03-19T23:49:04.209Z,8.40
2018-03-19T23:51:32.512Z,8.39
2018-03-19T23:54:00.109Z,8.28
2018-03-19T23:56:27.677Z,8.37
2018-03-19T23:58:55.796Z,8.25
